Latest Weather Observations for Applethorpe

IDN60801

Issued at 11:33 am EST Friday 26 August 2016 (issued every 30 minutes, with the page automatically refreshed every 10 minutes)

About weather observations | Map of weather stations | Latest weather observations for NSW | Other Formats
Station Details ID: 041175 Name: APPLETHORPE Lat: -28.62 Lon: 151.95 Height: 871.6 m
Data from the previous 72 hours. | See also: Recent months at Applethorpe
Date/Time
EST
Temp
°C
App
Temp
°C
Dew
Point
°C
Rel
Hum
%
Delta-T
°C
Wind Press
QNH
hPa
Press
MSL
hPa
Rain since
9am
mm
Dir  Spd
km/h
Gust
km/h
Spd
kts
Gust
kts
26/11:30am 10.7 7.6 -2.8 38 5.4 SSW 4 9 2 5 1016.8 1016.5 0.0
26/11:00am 10.2 6.7 -1.5 44 4.8 SW 7 15 4 8 1017.2 1016.8 0.0
26/10:30am 9.3 5.7 -1.9 45 4.5 WSW 7 13 4 7 1017.4 1017.0 0.0
26/10:00am 8.5 5.3 0.7 58 3.3 SSW 7 13 4 7 1017.5 1017.2 0.0
26/09:30am 7.8 4.1 0.1 58 3.2 SSW 9 17 5 9 1017.8 1017.5 0.0
26/09:00am 6.2 2.5 0.1 65 2.5 SSW 9 15 5 8 1017.8 1017.5 0.0
26/08:30am 5.5 1.3 1.5 75 1.7 SW 13 20 7 11 1018.0 1017.7 0.0
26/08:00am 4.1 0.4 2.5 89 0.7 SW 11 17 6 9 1017.8 1017.5 0.0
26/07:30am 2.9 -0.1 1.9 93 0.4 SW 7 9 4 5 1017.7 1017.4 0.0
26/07:00am 1.0 -1.2 1.0 100 0.0 SSW 2 4 1 2 1017.6 1017.3 0.0
26/06:30am 0.8 -2.2 0.8 100 0.0 WSW 6 7 3 4 1017.3 1016.9 0.0
26/06:00am 0.9 -1.7 0.9 100 0.0 SW 4 6 2 3 1016.9 1016.6 0.0
26/05:30am 1.1 -1.5 1.1 100 0.0 W 4 6 2 3 1016.8 1016.5 0.0
26/05:00am 1.4 -0.4 1.1 98 0.1 CALM 0 0 0 0 1016.6 1016.3 0.0
26/04:30am 2.2 0.5 2.0 99 0.1 CALM 0 2 0 1 1016.6 1016.3 0.0
26/04:00am 2.9 0.2 2.7 99 0.1 W 6 7 3 4 1016.1 1015.7 0.0
26/03:30am 3.7 1.9 3.2 97 0.2 S 2 6 1 3 1015.8 1015.5 0.0
26/03:00am 4.3 1.8 3.6 95 0.3 SSW 6 9 3 5 1016.0 1015.6 0.0
26/02:30am 4.5 1.4 3.6 94 0.4 SW 9 15 5 8 1015.8 1015.5 0.0
26/02:00am 4.8 1.7 3.7 93 0.5 WSW 9 17 5 9 1016.4 1016.0 0.0
26/01:30am 5.3 2.8 4.0 91 0.6 WSW 6 11 3 6 1016.7 1016.4 0.0
26/01:00am 5.7 3.2 3.9 88 0.8 WSW 6 9 3 5 1016.9 1016.6 0.0
26/12:30am 5.7 3.3 4.1 89 0.7 W 6 7 3 4 1017.0 1016.7 0.0
26/12:00am 5.9 3.8 3.9 87 0.9 WSW 4 6 2 3 1016.8 1016.5 0.0
 
Date/Time
EST
Temp
°C
App
Temp
°C
Dew
Point
°C
Rel
Hum
%
Delta-T
°C
Wind Press
QNH
hPa
Press
MSL
hPa
Rain since
9am
mm
Dir  Spd
km/h
Gust
km/h
Spd
kts
Gust
kts
25/11:30pm 5.7 3.6 3.7 87 0.9 W 4 7 2 4 1016.7 1016.4 0.0
25/11:00pm 5.2 2.7 3.6 89 0.7 W 6 9 3 5 1016.7 1016.4 0.0
25/10:30pm 5.0 2.4 3.4 89 0.7 W 6 9 3 5 1016.6 1016.3 0.0
25/10:00pm 5.6 2.9 3.6 87 0.9 WSW 7 11 4 6 1016.6 1016.3 0.0
25/09:30pm 6.0 3.5 3.5 84 1.1 SW 6 9 3 5 1016.7 1016.4 0.0
25/09:00pm 6.0 3.4 3.3 83 1.2 WSW 6 11 3 6 1016.6 1016.3 0.0
25/08:30pm 5.9 3.3 3.4 84 1.1 WSW 6 7 3 4 1016.4 1016.0 0.0
25/08:00pm 5.3 2.6 3.5 88 0.8 SW 7 11 4 6 1016.0 1015.6 0.0
25/07:30pm 5.8 1.9 3.3 84 1.1 WSW 13 20 7 11 1015.5 1015.2 0.0
25/07:00pm 6.3 2.8 3.4 82 1.3 WSW 11 20 6 11 1015.2 1014.8 0.0
25/06:30pm 6.6 3.1 3.5 80 1.4 WSW 11 20 6 11 1014.8 1014.4 0.0
25/06:00pm 7.0 3.9 3.4 78 1.6 W 9 19 5 10 1014.2 1013.8 0.0
25/05:30pm 7.8 4.2 2.9 71 2.2 SW 11 19 6 10 1014.0 1013.6 0.0
25/05:00pm 8.2 3.9 3.1 70 2.3 WSW 15 24 8 13 1013.7 1013.3 0.0
25/04:30pm 8.3 3.5 2.7 68 2.5 WSW 17 26 9 14 1013.1 1012.7 0.0
25/04:00pm 8.7 3.9 2.4 64 2.8 WSW 17 28 9 15 1013.0 1012.6 0.0
25/03:30pm 9.4 3.9 1.9 59 3.3 WSW 20 33 11 18 1012.8 1012.4 0.0
25/03:00pm 10.5 5.8 3.3 61 3.3 WSW 17 28 9 15 1012.4 1011.9 0.0
25/02:30pm 9.9 4.8 2.8 61 3.2 WSW 19 35 10 19 1011.9 1011.5 0.0
25/02:00pm 9.3 3.9 2.6 63 3.0 WSW 20 41 11 22 1011.9 1011.5 0.0
25/01:30pm 9.6 4.3 3.0 63 3.0 WSW 20 35 11 19 1011.6 1011.2 0.0
25/01:00pm 9.6 4.3 3.0 63 3.0 WSW 20 37 11 20 1011.7 1011.3 0.0
25/12:30pm 8.9 4.2 3.2 67 2.6 WSW 17 28 9 15 1012.3 1011.8 0.0
25/12:00pm 8.1 3.1 3.7 74 2.0 WSW 19 32 10 17 1012.6 1012.2 0.0
25/11:30am 7.7 2.4 3.2 73 2.0 WSW 20 39 11 21 1012.6 1012.2 0.0
25/11:00am 7.6 2.4 3.4 75 1.9 WSW 20 35 11 19 1012.5 1012.0 0.0
25/10:30am 6.7 1.4 2.8 76 1.7 WSW 20 33 11 18 1012.5 1012.0 0.0
25/10:00am 6.6 1.4 3.7 82 1.3 WSW 20 33 11 18 1012.3 1011.8 0.0
25/09:30am 6.3 0.7 3.4 82 1.3 WSW 22 39 12 21 1012.0 1011.6 0.0
25/09:00am 6.2 0.5 3.0 80 1.4 WSW 22 37 12 20 1011.9 1011.5 27.6
25/08:30am 5.7 0.1 3.2 84 1.1 WSW 22 39 12 21 1011.9 1011.5 27.6
25/08:00am 5.7 0.7 3.7 87 0.9 WSW 19 35 10 19 1011.6 1011.2 27.6
25/07:30am 5.7 0.0 3.0 83 1.2 WSW 22 37 12 20 1011.3 1010.8 27.6
25/07:00am 5.6 0.4 3.8 88 0.8 WSW 20 35 11 19 1011.2 1010.7 27.6
25/06:30am 5.6 1.0 3.8 88 0.8 WSW 17 32 9 17 1010.9 1010.5 27.6
25/06:00am 5.6 0.7 4.0 89 0.7 W 19 32 10 17 1010.6 1010.2 27.6
25/05:30am 5.6 2.3 4.7 94 0.4 WSW 11 24 6 13 1010.7 1010.3 27.6
25/05:00am 5.8 2.2 4.9 94 0.4 WSW 13 22 7 12 1010.6 1010.2 27.6
25/04:30am 5.9 1.7 5.5 97 0.2 WSW 17 28 9 15 1009.6 1009.2 27.6
25/04:00am 6.1 1.9 5.5 96 0.3 SW 17 28 9 15 1009.4 1008.9 27.6
25/03:30am 6.4 2.2 5.5 94 0.4 W 17 28 9 15 1010.0 1009.5 27.6
25/03:00am 7.0 2.5 5.9 93 0.5 WSW 19 30 10 16 1009.2 1008.7 27.6
25/02:30am 7.5 2.5 6.5 93 0.5 WSW 22 37 12 20 1008.7 1008.2 27.6
25/02:00am 8.1 3.8 6.9 92 0.6 WSW 19 39 10 21 1009.0 1008.5 27.6
25/01:30am 8.4 4.5 7.2 92 0.6 WSW 17 30 9 16 1009.3 1008.8 27.6
25/01:00am 8.6 5.2 7.6 93 0.5 WSW 15 28 8 15 1010.3 1009.8 27.6
25/12:30am 8.8 4.6 7.6 92 0.6 WSW 19 30 10 16 1010.0 1009.5 27.6
25/12:00am 9.4 4.5 8.4 93 0.5 WSW 24 39 13 21 1010.4 1009.9 27.0
 
Date/Time
EST
Temp
°C
App
Temp
°C
Dew
Point
°C
Rel
Hum
%
Delta-T
°C
Wind Press
QNH
hPa
Press
MSL
hPa
Rain since
9am
mm
Dir  Spd
km/h
Gust
km/h
Spd
kts
Gust
kts
24/11:30pm 10.4 6.5 9.6 95 0.4 WSW 20 32 11 17 1009.3 1008.8 25.8
24/11:00pm 11.3 9.1 10.9 97 0.2 W 13 28 7 15 1008.3 1007.8 24.2
24/10:30pm 11.3 9.1 10.7 96 0.3 WSW 13 24 7 13 1008.3 1007.8 23.8
24/10:00pm 11.5 9.0 11.0 97 0.3 WSW 15 24 8 13 1008.2 1007.7 23.0
24/09:30pm 12.2 9.8 11.5 95 0.4 W 15 32 8 17 1008.7 1008.2 22.4
24/09:00pm 12.3 11.1 11.6 95 0.4 NW 9 24 5 13 1008.4 1007.9 21.0
24/08:30pm 12.2 10.9 11.3 94 0.5 NNW 9 19 5 10 1008.3 1007.8 19.8
24/08:00pm 12.1 11.2 11.4 95 0.4 NNW 7 17 4 9 1008.1 1007.6 19.6
24/07:30pm 11.9 10.9 11.0 94 0.5 NNW 7 13 4 7 1008.9 1008.4 19.4
24/07:00pm 10.8 10.5 10.2 96 0.3 N 2 7 1 4 1009.1 1008.6 19.4
24/06:30pm 10.5 10.3 10.3 99 0.1 E 2 6 1 3 1008.4 1007.9 19.4
24/06:00pm 10.5 10.2 10.1 97 0.2 NE 2 4 1 2 1009.2 1008.7 19.4
24/05:30pm 10.5 9.2 10.1 97 0.2 NE 7 11 4 6 1007.5 1006.9 19.4
24/05:00pm 10.9 10.3 10.3 96 0.3 ENE 4 7 2 4 1008.2 1007.7 19.2
24/04:30pm 11.1 9.6 10.4 95 0.4 NE 9 17 5 9 1008.0 1007.5 19.2
24/04:00pm 11.1 9.2 10.5 96 0.3 NE 11 17 6 9 1007.6 1007.1 19.2
24/03:30pm 11.4 10.5 10.7 95 0.4 NE 6 11 3 6 1008.1 1007.6 19.0
24/03:00pm 11.4 10.5 10.7 95 0.4 NE 6 7 3 4 1008.8 1008.3 18.8
24/02:30pm 11.1 9.1 10.2 94 0.5 ENE 11 19 6 10 1008.6 1008.1 18.6
24/02:00pm 10.9 9.2 10.0 94 0.5 NE 9 19 5 10 1007.9 1007.4 18.2
24/01:52pm 10.9 9.3 10.3 96 0.3 NE 9 15 5 8 1007.6 1007.1 18.2
24/01:30pm 10.9 10.3 10.3 96 0.3 SSE 4 7 2 4 1009.6 1009.2 17.6
24/01:00pm 10.9 10.3 10.5 97 0.2 ENE 4 7 2 4 1009.9 1009.4 14.8
24/12:30pm 10.8 10.5 10.2 96 0.3 ESE 2 6 1 3 1010.2 1009.7 12.2
24/12:00pm 10.7 10.0 10.1 96 0.3 E 4 6 2 3 1010.2 1009.7 10.6
24/11:30am 10.4 9.1 9.8 96 0.3 ENE 7 15 4 8 1010.0 1009.5 8.2
24/11:00am 10.6 9.3 10.0 96 0.3 ENE 7 13 4 7 1010.2 1009.7 6.8
24/10:30am 10.5 9.2 9.9 96 0.3 E 7 13 4 7 1010.7 1010.3 5.2
24/10:00am 10.7 9.4 10.1 96 0.3 E 7 13 4 7 1010.6 1010.2 3.2
24/09:30am 11.0 10.3 9.9 93 0.6 ESE 4 7 2 4 1010.8 1010.4 0.6
24/09:00am 10.7 9.4 9.9 95 0.4 E 7 15 4 8 1011.2 1010.7 52.2
24/08:30am 10.5 8.8 9.9 96 0.3 ESE 9 20 5 11 1012.1 1011.7 50.8
24/08:00am 10.5 8.5 10.1 97 0.2 E 11 19 6 10 1011.5 1011.0 46.4
24/07:30am 10.6 9.6 10.2 97 0.2 ENE 6 9 3 5 1011.5 1011.0 41.4
24/07:00am 10.7 9.5 10.3 97 0.2 ENE 7 13 4 7 1011.3 1010.8 37.8
24/06:30am 10.8 9.3 10.4 97 0.2 ENE 9 19 5 10 1010.9 1010.5 35.6
24/06:00am 10.9 9.8 10.5 97 0.2 ENE 7 15 4 8 1010.6 1010.2 33.4
24/05:30am 10.9 9.4 10.5 97 0.2 ENE 9 17 5 9 1010.6 1010.2 30.8
24/05:00am 11.0 9.8 10.4 96 0.3 ENE 7 15 4 8 1010.5 1010.0 28.2
24/04:30am 11.0 9.9 10.6 97 0.2 ENE 7 11 4 6 1010.6 1010.2 24.0
24/04:00am 11.2 10.1 10.6 96 0.3 ENE 7 15 4 8 1010.5 1010.0 21.2
24/03:30am 11.6 10.6 11.1 97 0.3 E 7 13 4 7 1011.2 1010.7 17.2
24/03:00am 11.8 11.1 11.3 97 0.3 ENE 6 11 3 6 1011.1 1010.6 14.0
24/02:30am 11.7 11.0 11.3 97 0.2 ENE 6 9 3 5 1011.3 1010.8 12.4
24/02:00am 11.7 10.9 11.2 97 0.3 ENE 6 9 3 5 1012.3 1011.8 11.6
24/01:30am 11.5 10.5 11.0 97 0.3 NE 7 15 4 8 1012.1 1011.7 10.0
24/01:00am 11.4 10.5 10.8 96 0.3 ENE 6 9 3 5 1012.4 1011.9 9.0
24/12:30am 11.5 10.6 10.8 95 0.4 ENE 6 11 3 6 1012.7 1012.3 8.4
24/12:00am 11.5 10.7 11.0 97 0.3 ENE 6 11 3 6 1012.9 1012.5 8.2
 
Date/Time
EST
Temp
°C
App
Temp
°C
Dew
Point
°C
Rel
Hum
%
Delta-T
°C
Wind Press
QNH
hPa
Press
MSL
hPa
Rain since
9am
mm
Dir  Spd
km/h
Gust
km/h
Spd
kts
Gust
kts
23/11:30pm 11.8 11.1 11.3 97 0.3 ENE 6 13 3 7 1013.7 1013.3 8.0
23/11:00pm 11.8 11.5 11.4 97 0.2 E 4 6 2 3 1014.3 1013.9 7.2
23/10:30pm 11.7 11.4 11.3 97 0.2 SSW 4 7 2 4 1014.8 1014.4 6.4
23/10:00pm 12.1 12.2 11.6 97 0.3 S 2 6 1 3 1015.3 1014.9 4.4
23/09:30pm 12.0 12.0 11.1 94 0.5 SE 2 4 1 2 1015.2 1014.8 2.6
23/09:00pm 12.4 13.0 11.9 97 0.3 CALM 0 0 0 0 1015.1 1014.7 1.8
23/08:30pm 12.8 13.5 12.3 97 0.3 CALM 0 0 0 0 1015.8 1015.5 1.4
23/08:00pm 12.9 13.7 12.5 97 0.2 CALM 0 2 0 1 1015.7 1015.4 1.2
23/07:30pm 13.1 13.9 12.4 95 0.4 CALM 0 2 0 1 1015.3 1014.9 1.0
23/07:00pm 13.0 13.8 12.5 97 0.3 CALM 0 0 0 0 1015.0 1014.6 0.8
23/06:30pm 12.9 13.7 12.4 97 0.3 CALM 0 0 0 0 1014.9 1014.5 0.8
23/06:00pm 13.2 13.6 12.5 95 0.4 SW 2 4 1 2 1015.1 1014.7 0.8
23/05:30pm 13.7 13.7 12.5 92 0.7 SSW 4 6 2 3 1014.6 1014.3 0.8
23/05:00pm 14.1 14.7 13.2 94 0.5 WSW 2 4 1 2 1015.1 1014.7 0.8
23/04:30pm 14.4 14.9 12.8 90 0.9 W 2 6 1 3 1015.2 1014.8 0.6
23/04:00pm 15.1 15.0 12.1 82 1.7 W 4 6 2 3 1014.8 1014.4 0.4
23/03:30pm 16.0 15.3 11.4 74 2.6 WSW 6 11 3 6 1014.5 1014.2 0.2
23/03:00pm 16.5 15.4 10.8 69 3.2 W 7 13 4 7 1014.3 1013.9 0.2
23/02:30pm 17.4 15.4 10.2 62 4.0 WNW 11 22 6 12 1014.2 1013.8 0.2
23/02:00pm 16.8 15.4 10.9 68 3.3 WNW 9 17 5 9 1014.4 1014.0 0.2
23/01:30pm 16.1 14.3 10.7 70 3.0 W 11 19 6 10 1014.1 1013.7 0.2
23/01:00pm 15.9 14.7 11.5 75 2.5 W 9 15 5 8 1014.4 1014.0 0.2
23/12:30pm 15.7 14.0 11.2 74 2.5 WNW 11 20 6 11 1015.0 1014.6 0.2
23/12:00pm 15.2 13.6 11.5 78 2.1 WNW 11 22 6 12 1015.7 1015.4 0.2

Other Formats:

Comma delimited format used in spreadsheet applications
http://www.bom.gov.au/fwo/IDN60801/IDN60801.94553.axf

JavaScript Object Notation format (JSON) in row-major order
http://www.bom.gov.au/fwo/IDN60801/IDN60801.94553.json